Terminal Aerodrome Forecast
Issued by NWS

Home | Current Version | Previous Version | Graphics & Text | Print | Product List | Glossary On
Versions: 1 2 3 4 5 6 7 8 9 10 11 12 13 14 15 16 17 18 19 20
000
FTUS43 KABR 181120
TAFPIR
TAF
KPIR 181120Z 1812/1912 27006KT P6SM BKN250
     FM181300 32013KT P6SM BKN250
     FM181500 31013G22KT P6SM BKN250
     FM182200 29009KT P6SM FEW250
     FM190000 28005KT P6SM FEW250
     FM190200 20004KT P6SM FEW250
     FM190700 14006KT P6SM FEW250
     FM190900 14006KT P6SM FEW250 WS020/22045KT=

USA.gov is the U.S. government's official web portal to all federal, state and local government web resources and services.